createdAt,value
2016-12-04T00:00:29.831Z,0
2016-12-04T00:01:11.325Z,0
2016-12-04T00:01:52.837Z,0
2016-12-04T00:02:34.647Z,0
2016-12-04T00:03:16.382Z,0
2016-12-04T00:03:58.103Z,0
2016-12-04T00:04:39.726Z,0
2016-12-04T00:07:16.058Z,0
2016-12-04T00:07:57.779Z,0
2016-12-04T00:08:39.535Z,0
2016-12-04T00:09:21.285Z,0
2016-12-04T00:12:02.889Z,0
2016-12-04T00:12:44.469Z,0
2016-12-04T00:13:26.155Z,0
2016-12-04T00:14:07.832Z,0
2016-12-04T00:14:49.525Z,0
2016-12-04T00:15:31.219Z,0
2016-12-04T00:18:02.348Z,0
2016-12-04T00:18:44.065Z,0
2016-12-04T00:19:25.817Z,0
2016-12-04T00:20:07.504Z,0
2016-12-04T00:20:49.227Z,0
2016-12-04T00:21:30.790Z,0
2016-12-04T00:22:12.499Z,0
2016-12-04T00:24:33.235Z,0
2016-12-04T00:25:15.009Z,0
2016-12-04T00:25:56.714Z,0
2016-12-04T00:26:38.481Z,0
2016-12-04T00:27:20.200Z,0
2016-12-04T00:28:01.858Z,0
2016-12-04T00:28:43.544Z,0
2016-12-04T00:29:25.324Z,0
2016-12-04T00:32:01.918Z,0
2016-12-04T00:32:43.683Z,0
2016-12-04T00:33:25.370Z,0
2016-12-04T00:34:07.088Z,0
2016-12-04T00:34:48.806Z,0
2016-12-04T00:35:30.557Z,0
2016-12-04T00:36:12.230Z,0
2016-12-04T00:36:53.917Z,0
2016-12-04T00:37:35.704Z,0
2016-12-04T00:40:12.331Z,0
2016-12-04T00:40:54.003Z,0
2016-12-04T00:41:35.774Z,0
2016-12-04T00:42:17.410Z,0
2016-12-04T00:42:59.198Z,0
2016-12-04T00:43:40.880Z,0
2016-12-04T00:44:22.597Z,0
2016-12-04T00:45:04.264Z,0
2016-12-04T00:45:45.963Z,0
2016-12-04T00:46:27.701Z,0
2016-12-04T00:49:09.359Z,0
2016-12-04T00:49:51.048Z,0
2016-12-04T00:50:32.663Z,0
2016-12-04T00:51:14.407Z,0
2016-12-04T00:51:56.082Z,0
2016-12-04T00:52:37.880Z,0
2016-12-04T00:53:19.641Z,0
2016-12-04T00:54:01.395Z,0
2016-12-04T00:54:43.163Z,0
2016-12-04T00:55:24.910Z,0
2016-12-04T00:56:06.555Z,0
2016-12-04T00:56:48.336Z,0
2016-12-04T00:57:30.098Z,0
2016-12-04T00:58:11.830Z,0
2016-12-04T00:58:53.546Z,0
2016-12-04T00:59:35.211Z,0
2016-12-04T01:00:16.905Z,0
2016-12-04T01:02:32.403Z,0
2016-12-04T01:03:14.142Z,0
2016-12-04T01:03:55.759Z,0
2016-12-04T01:04:37.552Z,0
2016-12-04T01:05:18.848Z,0
2016-12-04T01:06:00.469Z,0
2016-12-04T01:06:42.174Z,0
2016-12-04T01:07:23.987Z,0
2016-12-04T01:08:05.501Z,0
2016-12-04T01:08:47.111Z,0
2016-12-04T01:09:28.853Z,0
2016-12-04T01:10:10.477Z,0
2016-12-04T01:10:52.211Z,0
2016-12-04T01:11:33.820Z,0
2016-12-04T01:14:04.949Z,0
2016-12-04T01:14:46.516Z,0
2016-12-04T01:15:28.242Z,0
2016-12-04T01:16:09.966Z,0
2016-12-04T01:18:46.070Z,0
2016-12-04T01:19:27.821Z,0
2016-12-04T01:20:09.331Z,0
2016-12-04T01:20:51.002Z,0
2016-12-04T01:23:06.542Z,0
2016-12-04T01:23:48.257Z,0
2016-12-04T01:24:29.966Z,0
2016-12-04T01:25:11.645Z,0
2016-12-04T01:25:53.399Z,0
2016-12-04T01:26:34.980Z,0
2016-12-04T01:27:16.693Z,0
2016-12-04T01:27:58.528Z,0
2016-12-04T01:28:40.316Z,0
2016-12-04T01:29:22.061Z,0
2016-12-04T01:30:03.733Z,0
2016-12-04T01:30:45.475Z,0
2016-12-04T01:31:26.912Z,0
2016-12-04T01:33:42.371Z,0
2016-12-04T01:34:23.979Z,0
2016-12-04T01:36:39.435Z,0
2016-12-04T01:37:21.157Z,0
2016-12-04T01:38:02.842Z,0
2016-12-04T01:38:44.399Z,0
2016-12-04T01:39:26.051Z,0
2016-12-04T01:40:07.839Z,0
2016-12-04T01:40:49.568Z,0
2016-12-04T01:43:04.872Z,0
2016-12-04T01:43:46.651Z,0
2016-12-04T01:44:28.363Z,0
2016-12-04T01:45:09.912Z,0
2016-12-04T01:47:25.286Z,0
2016-12-04T01:48:06.856Z,0
2016-12-04T01:48:48.556Z,0
2016-12-04T01:49:30.189Z,0
2016-12-04T01:50:11.747Z,0
2016-12-04T01:52:27.104Z,0
2016-12-04T01:53:08.870Z,0
2016-12-04T01:53:50.428Z,0
2016-12-04T01:56:10.982Z,0
2016-12-04T01:56:52.725Z,0
2016-12-04T01:57:34.455Z,0
2016-12-04T01:58:16.145Z,0
2016-12-04T01:58:57.817Z,0
2016-12-04T01:59:38.869Z,0
2016-12-04T02:00:19.395Z,0
2016-12-04T02:00:59.906Z,0
2016-12-04T02:01:40.421Z,0
2016-12-04T02:02:20.962Z,0
2016-12-04T02:03:01.489Z,0
2016-12-04T02:03:42.015Z,0
2016-12-04T02:04:22.542Z,0
2016-12-04T02:05:03.077Z,0
2016-12-04T02:05:43.601Z,0
2016-12-04T02:06:24.152Z,0
2016-12-04T02:07:04.658Z,0
2016-12-04T02:07:45.175Z,0
2016-12-04T02:08:25.704Z,0
2016-12-04T02:09:06.226Z,0
2016-12-04T02:09:46.748Z,0
2016-12-04T02:10:27.282Z,0
2016-12-04T02:11:07.821Z,0
2016-12-04T02:11:48.351Z,0
2016-12-04T02:12:28.870Z,0
2016-12-04T02:13:09.393Z,0
2016-12-04T02:13:50.029Z,0
2016-12-04T02:14:30.611Z,0
2016-12-04T02:15:11.147Z,0
2016-12-04T02:15:51.692Z,0
2016-12-04T02:16:32.226Z,0
2016-12-04T02:17:12.768Z,0
2016-12-04T02:17:53.312Z,0
2016-12-04T02:18:33.840Z,0
2016-12-04T02:19:14.375Z,0
2016-12-04T02:19:54.909Z,0
2016-12-04T02:20:35.435Z,0
2016-12-04T02:21:15.980Z,0
2016-12-04T02:21:56.521Z,0
2016-12-04T02:22:37.060Z,0
2016-12-04T02:23:17.590Z,0
2016-12-04T02:23:58.117Z,0
2016-12-04T02:24:38.649Z,0
2016-12-04T02:25:19.183Z,0
2016-12-04T02:25:59.712Z,0
2016-12-04T02:26:40.233Z,0
2016-12-04T02:27:20.769Z,0
2016-12-04T02:28:01.300Z,0
2016-12-04T02:28:41.834Z,0
2016-12-04T02:29:22.365Z,0
2016-12-04T02:30:02.894Z,0
2016-12-04T02:30:43.426Z,0
2016-12-04T02:31:23.943Z,0
2016-12-04T02:32:04.470Z,0
2016-12-04T02:32:44.996Z,0
2016-12-04T02:33:25.533Z,0
2016-12-04T02:34:06.048Z,0
2016-12-04T02:34:46.590Z,0
2016-12-04T02:35:27.122Z,0
2016-12-04T02:36:07.669Z,0
2016-12-04T02:36:48.180Z,0
2016-12-04T02:37:28.693Z,0
2016-12-04T02:38:09.232Z,0
2016-12-04T02:38:49.748Z,0
2016-12-04T02:39:30.277Z,0
2016-12-04T02:40:10.809Z,0
2016-12-04T02:40:51.343Z,0
2016-12-04T02:41:31.885Z,0
2016-12-04T02:42:12.421Z,0
2016-12-04T02:42:52.952Z,0
2016-12-04T02:43:33.483Z,0
2016-12-04T02:44:14.020Z,0
2016-12-04T02:44:54.558Z,0
2016-12-04T02:45:35.092Z,0
2016-12-04T02:46:15.622Z,0
2016-12-04T02:46:56.157Z,0
2016-12-04T02:47:36.692Z,0
2016-12-04T02:48:17.221Z,0
2016-12-04T02:48:57.760Z,0
2016-12-04T02:49:38.292Z,0
2016-12-04T02:50:18.855Z,0
2016-12-04T02:50:59.399Z,0
2016-12-04T02:51:39.919Z,0
2016-12-04T02:52:20.457Z,0
2016-12-04T02:53:00.999Z,0
2016-12-04T02:53:41.518Z,0
2016-12-04T02:54:22.051Z,0
2016-12-04T02:55:02.593Z,0
2016-12-04T02:55:43.107Z,0
2016-12-04T02:56:23.639Z,0
2016-12-04T02:57:04.164Z,0
2016-12-04T02:57:44.699Z,0
2016-12-04T02:58:25.232Z,0
2016-12-04T02:59:05.762Z,0
2016-12-04T02:59:46.290Z,0
2016-12-04T03:00:26.811Z,0
2016-12-04T03:01:07.384Z,0
2016-12-04T03:01:47.908Z,0
2016-12-04T03:02:28.443Z,0
2016-12-04T03:03:08.974Z,0
2016-12-04T03:03:49.504Z,0
2016-12-04T03:04:30.043Z,0
2016-12-04T03:05:10.579Z,0
2016-12-04T03:05:51.118Z,0
2016-12-04T03:06:31.658Z,0
2016-12-04T03:07:12.206Z,0
2016-12-04T03:07:52.748Z,0
2016-12-04T03:08:33.281Z,0
2016-12-04T03:09:13.811Z,0
2016-12-04T03:09:54.344Z,0
2016-12-04T03:10:34.878Z,0
2016-12-04T03:11:15.411Z,0
2016-12-04T03:11:55.941Z,0
2016-12-04T03:12:36.481Z,0
2016-12-04T03:13:16.999Z,0
2016-12-04T03:13:57.516Z,0
2016-12-04T03:14:38.034Z,0
2016-12-04T03:15:18.564Z,0
2016-12-04T03:15:59.098Z,0
2016-12-04T03:16:39.633Z,0
2016-12-04T03:17:20.174Z,0
2016-12-04T03:18:00.695Z,0
2016-12-04T03:18:41.217Z,0
2016-12-04T03:19:21.748Z,0
2016-12-04T03:20:02.268Z,0
2016-12-04T03:20:42.812Z,0
2016-12-04T03:21:23.325Z,0
2016-12-04T03:22:03.843Z,0
2016-12-04T03:22:44.378Z,0
2016-12-04T03:23:24.915Z,0
2016-12-04T03:24:05.454Z,0
2016-12-04T03:24:45.973Z,0
2016-12-04T03:25:26.508Z,0
2016-12-04T03:26:07.046Z,0
2016-12-04T03:26:47.582Z,0
2016-12-04T03:27:28.118Z,0
2016-12-04T03:28:08.646Z,0
2016-12-04T03:28:49.175Z,0
2016-12-04T03:29:29.711Z,0
2016-12-04T03:30:10.234Z,0
2016-12-04T03:30:50.784Z,0
2016-12-04T03:31:31.318Z,0
2016-12-04T03:32:11.848Z,0
2016-12-04T03:32:52.373Z,0
2016-12-04T03:33:32.907Z,0
2016-12-04T03:34:13.430Z,0
2016-12-04T03:34:53.976Z,0
2016-12-04T03:35:34.509Z,0
2016-12-04T03:36:15.053Z,0
2016-12-04T03:36:55.570Z,0
2016-12-04T03:37:36.108Z,0
2016-12-04T03:38:16.641Z,0
2016-12-04T03:38:57.178Z,0
2016-12-04T03:39:37.710Z,0
2016-12-04T03:40:18.234Z,0
2016-12-04T03:40:58.761Z,0
2016-12-04T03:41:39.300Z,0
2016-12-04T03:42:19.837Z,0
2016-12-04T03:43:00.363Z,0
2016-12-04T03:43:40.883Z,0
2016-12-04T03:44:21.457Z,0
2016-12-04T03:45:01.988Z,0
2016-12-04T03:45:42.521Z,0
2016-12-04T03:46:23.048Z,0
2016-12-04T03:47:03.599Z,0
2016-12-04T03:47:44.110Z,0
2016-12-04T03:48:24.649Z,0
2016-12-04T03:49:05.177Z,0
2016-12-04T03:49:45.708Z,0
2016-12-04T03:50:26.235Z,0
2016-12-04T03:51:06.769Z,0
2016-12-04T03:51:47.281Z,0
2016-12-04T03:52:27.818Z,0
2016-12-04T03:53:08.342Z,0
2016-12-04T03:53:48.880Z,0
2016-12-04T03:54:29.383Z,0
2016-12-04T03:55:09.896Z,0
2016-12-04T03:55:50.438Z,0
2016-12-04T03:56:30.977Z,0
2016-12-04T03:57:11.506Z,0
2016-12-04T03:57:52.034Z,0
2016-12-04T03:58:32.562Z,0
2016-12-04T03:59:13.100Z,0
2016-12-04T03:59:53.633Z,0
2016-12-04T04:00:34.162Z,0
2016-12-04T04:01:14.687Z,0
2016-12-04T04:01:55.222Z,0
2016-12-04T04:02:35.758Z,0
2016-12-04T04:03:16.292Z,0
2016-12-04T04:03:56.827Z,0
2016-12-04T04:04:37.347Z,0
2016-12-04T04:05:17.885Z,0
2016-12-04T04:05:58.424Z,0
2016-12-04T04:06:38.946Z,0
2016-12-04T04:07:19.480Z,0
2016-12-04T04:07:59.990Z,0
2016-12-04T04:08:40.523Z,0
2016-12-04T04:09:21.058Z,0
2016-12-04T04:10:01.590Z,0
2016-12-04T04:10:42.119Z,0
2016-12-04T04:11:22.631Z,0
2016-12-04T04:12:03.165Z,0
2016-12-04T04:12:43.705Z,0
2016-12-04T04:13:24.250Z,0
2016-12-04T04:14:04.773Z,0
2016-12-04T04:14:45.294Z,0
2016-12-04T04:15:25.822Z,0
2016-12-04T04:16:06.350Z,0
2016-12-04T04:16:46.893Z,0
2016-12-04T04:17:27.424Z,0
2016-12-04T04:18:07.971Z,0
2016-12-04T04:18:48.486Z,0
2016-12-04T04:19:29.009Z,0
2016-12-04T04:20:09.553Z,0
2016-12-04T04:20:50.091Z,0
2016-12-04T04:21:30.627Z,0
2016-12-04T04:22:11.169Z,0
2016-12-04T04:22:51.699Z,0
2016-12-04T04:23:32.240Z,0
2016-12-04T04:24:12.755Z,0
2016-12-04T04:24:53.284Z,0
2016-12-04T04:25:33.829Z,0
2016-12-04T04:26:14.368Z,0
2016-12-04T04:26:54.902Z,0
2016-12-04T04:27:35.436Z,0
2016-12-04T04:28:15.975Z,0
2016-12-04T04:28:56.506Z,0
2016-12-04T04:29:37.035Z,0
2016-12-04T04:30:17.554Z,0
2016-12-04T04:30:58.106Z,0
2016-12-04T04:31:38.640Z,0
2016-12-04T04:32:19.163Z,0
2016-12-04T04:32:59.697Z,0
2016-12-04T04:33:40.212Z,0
2016-12-04T04:34:20.732Z,0
2016-12-04T04:35:01.263Z,0
2016-12-04T04:35:41.804Z,0
2016-12-04T04:36:22.350Z,0
2016-12-04T04:37:02.852Z,0
2016-12-04T04:37:43.375Z,0
2016-12-04T04:38:23.910Z,0
2016-12-04T04:39:04.453Z,0
2016-12-04T04:39:44.993Z,0
2016-12-04T04:40:25.502Z,0
2016-12-04T04:41:06.034Z,0
2016-12-04T04:41:46.564Z,0
2016-12-04T04:42:27.099Z,0
2016-12-04T04:43:07.646Z,0
2016-12-04T04:43:48.171Z,0
2016-12-04T04:44:28.700Z,0
2016-12-04T04:45:09.238Z,0
2016-12-04T04:45:49.775Z,0
2016-12-04T04:46:30.314Z,0
2016-12-04T04:47:10.845Z,0
2016-12-04T04:47:51.381Z,0
2016-12-04T04:48:31.909Z,0
2016-12-04T04:49:12.443Z,0
2016-12-04T04:49:52.971Z,0
2016-12-04T04:50:33.508Z,0
2016-12-04T04:51:14.052Z,0
2016-12-04T04:51:54.583Z,0
2016-12-04T04:52:35.121Z,0
2016-12-04T04:53:15.646Z,0
2016-12-04T04:53:56.181Z,0
2016-12-04T04:54:36.719Z,0
2016-12-04T04:55:17.252Z,0
2016-12-04T04:55:57.773Z,0
2016-12-04T04:56:38.306Z,0
2016-12-04T04:57:18.848Z,0
2016-12-04T04:57:59.388Z,0
2016-12-04T04:58:39.929Z,0
2016-12-04T04:59:20.451Z,0
2016-12-04T05:00:00.982Z,0
2016-12-04T05:00:41.514Z,0
2016-12-04T05:01:22.051Z,0
2016-12-04T05:02:02.588Z,0
2016-12-04T05:02:43.125Z,0
2016-12-04T05:03:23.641Z,0
2016-12-04T05:04:04.175Z,0
2016-12-04T05:04:44.736Z,0
2016-12-04T05:05:25.269Z,0
2016-12-04T05:06:05.787Z,0
2016-12-04T05:06:46.344Z,0
2016-12-04T05:07:26.878Z,0
2016-12-04T05:08:07.423Z,0
2016-12-04T05:08:47.975Z,0
2016-12-04T05:09:28.509Z,0
2016-12-04T05:10:09.032Z,0
2016-12-04T05:10:49.574Z,0
2016-12-04T05:11:30.109Z,0
2016-12-04T05:12:10.649Z,0
2016-12-04T05:12:51.186Z,0
2016-12-04T05:13:31.745Z,0
2016-12-04T05:14:12.275Z,0
2016-12-04T05:14:52.793Z,0
2016-12-04T05:15:33.327Z,0
2016-12-04T05:16:13.866Z,0
2016-12-04T05:16:54.399Z,0
2016-12-04T05:17:34.935Z,0
2016-12-04T05:18:15.467Z,0
2016-12-04T05:18:55.991Z,0
2016-12-04T05:19:36.522Z,0
2016-12-04T05:20:17.054Z,0
2016-12-04T05:20:57.589Z,0
2016-12-04T05:21:38.119Z,0
2016-12-04T05:22:18.652Z,0
2016-12-04T05:22:59.186Z,0
2016-12-04T05:23:39.721Z,0
2016-12-04T05:24:20.253Z,0
2016-12-04T05:25:00.791Z,0
2016-12-04T05:25:41.336Z,0
2016-12-04T05:26:21.860Z,0
2016-12-04T05:27:02.389Z,0
2016-12-04T05:27:42.917Z,0
2016-12-04T05:28:23.463Z,0
2016-12-04T05:29:03.998Z,0
2016-12-04T05:29:44.535Z,0
2016-12-04T05:30:25.068Z,0
2016-12-04T05:31:05.587Z,0
2016-12-04T05:31:46.122Z,0
2016-12-04T05:32:26.653Z,0
2016-12-04T05:33:07.189Z,0
2016-12-04T05:33:47.725Z,0
2016-12-04T05:34:28.258Z,0
2016-12-04T05:35:08.788Z,0
2016-12-04T05:35:49.336Z,0
2016-12-04T05:36:29.872Z,0
2016-12-04T05:37:10.416Z,0
2016-12-04T05:37:50.952Z,0
2016-12-04T05:38:31.481Z,0
2016-12-04T05:39:12.022Z,0
2016-12-04T05:39:52.552Z,0
2016-12-04T05:40:33.083Z,0
2016-12-04T05:41:13.606Z,0
2016-12-04T05:41:54.135Z,0
2016-12-04T05:42:34.663Z,0
2016-12-04T05:43:15.210Z,0
2016-12-04T05:43:55.726Z,0
2016-12-04T05:44:36.259Z,0
2016-12-04T05:45:16.789Z,0
2016-12-04T05:45:57.315Z,0
2016-12-04T05:46:37.851Z,0
2016-12-04T05:47:18.384Z,0
2016-12-04T05:47:58.926Z,0
2016-12-04T05:48:39.437Z,0
2016-12-04T05:49:19.958Z,0
2016-12-04T05:50:00.494Z,0
2016-12-04T05:50:41.032Z,0
2016-12-04T05:51:21.585Z,0
2016-12-04T05:52:02.113Z,0
2016-12-04T05:52:42.641Z,0
2016-12-04T05:53:23.179Z,0
2016-12-04T05:54:03.712Z,0
2016-12-04T05:54:44.242Z,0
2016-12-04T05:55:24.782Z,0
2016-12-04T05:56:05.305Z,0
2016-12-04T05:56:45.862Z,0
2016-12-04T05:57:26.370Z,0
2016-12-04T05:58:06.898Z,0
2016-12-04T05:58:47.433Z,0
2016-12-04T05:59:27.964Z,0
2016-12-04T06:00:08.500Z,0
2016-12-04T06:00:49.034Z,0
2016-12-04T06:01:29.566Z,0
2016-12-04T06:02:10.101Z,0
2016-12-04T06:02:50.624Z,0
2016-12-04T06:03:31.151Z,0
2016-12-04T06:04:11.639Z,0
2016-12-04T06:04:52.187Z,0
2016-12-04T06:05:32.750Z,0
2016-12-04T06:06:13.281Z,0
2016-12-04T06:06:53.822Z,0
2016-12-04T06:07:34.288Z,0
2016-12-04T06:08:14.821Z,0
2016-12-04T06:08:55.347Z,0
2016-12-04T06:09:35.859Z,0
2016-12-04T06:10:16.384Z,0
2016-12-04T06:10:56.924Z,0
2016-12-04T06:11:37.448Z,0
2016-12-04T06:12:17.951Z,0
2016-12-04T06:12:58.466Z,0
2016-12-04T06:13:39.008Z,0
2016-12-04T06:14:19.502Z,0
2016-12-04T06:15:00.021Z,0
2016-12-04T06:15:40.551Z,0
2016-12-04T06:16:21.077Z,0
2016-12-04T06:17:01.600Z,0
2016-12-04T06:17:42.125Z,0
2016-12-04T06:18:22.681Z,0
2016-12-04T06:19:03.203Z,0
2016-12-04T06:19:43.728Z,0
2016-12-04T06:20:24.261Z,0
2016-12-04T06:21:04.784Z,0
2016-12-04T06:21:45.334Z,0
2016-12-04T06:22:25.872Z,0
2016-12-04T06:23:06.423Z,0
2016-12-04T06:23:46.964Z,0
2016-12-04T06:24:27.503Z,0
2016-12-04T06:25:08.029Z,0
2016-12-04T06:25:48.564Z,0
2016-12-04T06:26:29.134Z,0
2016-12-04T06:27:09.697Z,0
2016-12-04T06:27:50.228Z,0
2016-12-04T06:28:30.784Z,0
2016-12-04T06:29:11.317Z,0
2016-12-04T06:29:51.849Z,0
2016-12-04T06:30:32.360Z,0
2016-12-04T06:32:51.716Z,0
2016-12-04T06:33:32.248Z,0
2016-12-04T06:34:12.783Z,0
2016-12-04T06:34:53.317Z,0
2016-12-04T06:35:33.858Z,0
2016-12-04T06:36:14.391Z,0
2016-12-04T06:36:54.975Z,0
2016-12-04T06:37:35.506Z,0
2016-12-04T06:38:16.053Z,0
2016-12-04T06:38:56.583Z,0
2016-12-04T06:39:37.103Z,0
2016-12-04T06:40:17.623Z,0
2016-12-04T06:40:58.154Z,0
2016-12-04T06:41:38.673Z,0
2016-12-04T06:42:19.190Z,0
2016-12-04T06:42:59.711Z,0
2016-12-04T06:43:40.238Z,0
2016-12-04T06:44:20.758Z,0
2016-12-04T06:45:01.283Z,0
2016-12-04T06:45:41.812Z,0
2016-12-04T06:46:22.321Z,0
2016-12-04T06:47:02.825Z,0
2016-12-04T06:47:43.359Z,0
2016-12-04T06:48:23.875Z,0
2016-12-04T06:49:04.404Z,0
2016-12-04T06:49:44.941Z,0
2016-12-04T06:50:25.467Z,0
2016-12-04T06:51:06.017Z,0
2016-12-04T06:51:46.575Z,0
2016-12-04T06:52:27.110Z,0
2016-12-04T06:53:07.640Z,0
2016-12-04T06:53:48.176Z,0
2016-12-04T06:54:28.704Z,0
2016-12-04T06:55:09.238Z,0
2016-12-04T06:55:49.767Z,0
2016-12-04T06:56:30.312Z,0
2016-12-04T06:57:10.831Z,0
2016-12-04T06:57:51.361Z,0
2016-12-04T06:58:31.897Z,0
2016-12-04T06:59:12.423Z,0
2016-12-04T06:59:52.965Z,0
2016-12-04T07:00:33.495Z,0
2016-12-04T07:01:14.024Z,0
2016-12-04T07:01:54.559Z,0
2016-12-04T07:02:35.089Z,0
2016-12-04T07:03:15.633Z,0
2016-12-04T07:03:56.154Z,0
2016-12-04T07:04:36.689Z,0
2016-12-04T07:05:17.213Z,0
2016-12-04T07:05:57.747Z,0
2016-12-04T07:06:38.282Z,0
2016-12-04T07:07:18.816Z,0
2016-12-04T07:07:59.322Z,0
2016-12-04T07:08:39.842Z,0
2016-12-04T07:09:20.381Z,0
2016-12-04T07:10:00.880Z,0
2016-12-04T07:10:41.488Z,0
2016-12-04T07:11:22.020Z,0
2016-12-04T07:12:02.550Z,0
2016-12-04T07:12:43.081Z,0
2016-12-04T07:13:23.608Z,5
2016-12-04T07:14:04.131Z,5
2016-12-04T07:14:44.643Z,5
2016-12-04T07:15:25.152Z,5
2016-12-04T07:16:05.660Z,5
2016-12-04T07:16:46.194Z,5
2016-12-04T07:17:26.708Z,5
2016-12-04T07:18:07.235Z,5
2016-12-04T07:18:47.763Z,5
2016-12-04T07:19:28.270Z,5
2016-12-04T07:20:08.779Z,5
2016-12-04T07:20:49.308Z,5
2016-12-04T07:21:29.819Z,5
2016-12-04T07:22:10.334Z,5
2016-12-04T07:22:50.870Z,5
2016-12-04T07:23:31.403Z,5
2016-12-04T07:24:11.923Z,10
2016-12-04T07:24:52.483Z,10
2016-12-04T07:25:33.017Z,10
2016-12-04T07:26:13.527Z,10
2016-12-04T07:26:54.058Z,10
2016-12-04T07:27:34.596Z,10
2016-12-04T07:28:15.094Z,10
2016-12-04T07:28:55.627Z,10
2016-12-04T07:29:36.172Z,10
2016-12-04T07:30:16.704Z,10
2016-12-04T07:30:57.236Z,10
2016-12-04T07:31:37.764Z,15
2016-12-04T07:32:18.294Z,15
2016-12-04T07:32:58.829Z,15
2016-12-04T07:33:39.368Z,15
2016-12-04T07:34:19.903Z,15
2016-12-04T07:35:00.430Z,15
2016-12-04T07:35:40.970Z,20
2016-12-04T07:36:21.497Z,20
2016-12-04T07:37:02.032Z,20
2016-12-04T07:37:42.564Z,20
2016-12-04T07:38:23.101Z,20
2016-12-04T07:39:03.629Z,20
2016-12-04T07:39:44.159Z,20
2016-12-04T07:40:24.654Z,20
2016-12-04T07:41:05.179Z,20
2016-12-04T07:41:45.702Z,20
2016-12-04T07:42:26.234Z,25
2016-12-04T07:43:06.763Z,25
2016-12-04T07:43:47.303Z,25
2016-12-04T07:44:27.832Z,25
2016-12-04T07:45:08.372Z,25
2016-12-04T07:45:48.906Z,25
2016-12-04T07:46:29.448Z,25
2016-12-04T07:47:09.989Z,30
2016-12-04T07:47:50.538Z,30
2016-12-04T07:48:31.037Z,30
2016-12-04T07:49:11.542Z,30
2016-12-04T07:49:52.032Z,35
2016-12-04T07:50:32.515Z,30
2016-12-04T07:51:13.064Z,35
2016-12-04T07:51:53.596Z,35
2016-12-04T07:52:34.123Z,40
2016-12-04T07:53:14.657Z,45
2016-12-04T07:53:55.188Z,45
2016-12-04T07:54:35.723Z,45
2016-12-04T07:55:16.267Z,45
2016-12-04T07:55:56.801Z,45
2016-12-04T07:56:37.325Z,45
2016-12-04T07:57:17.852Z,45
2016-12-04T07:57:58.369Z,40
2016-12-04T07:58:38.911Z,45
2016-12-04T07:59:19.441Z,45
2016-12-04T07:59:59.965Z,45
2016-12-04T08:00:40.486Z,50
2016-12-04T08:01:21.001Z,50
2016-12-04T08:02:01.525Z,50
2016-12-04T08:02:42.049Z,55
2016-12-04T08:03:22.614Z,55
2016-12-04T08:04:03.148Z,50
2016-12-04T08:04:43.674Z,55
2016-12-04T08:05:24.214Z,55
2016-12-04T08:06:04.736Z,55
2016-12-04T08:06:45.264Z,55
2016-12-04T08:07:25.810Z,60
2016-12-04T08:08:06.345Z,60
2016-12-04T08:08:46.877Z,55
2016-12-04T08:09:27.409Z,60
2016-12-04T08:10:07.936Z,55
2016-12-04T08:10:48.471Z,55
2016-12-04T08:11:29.007Z,60
2016-12-04T08:12:09.554Z,60
2016-12-04T08:12:50.095Z,60
2016-12-04T08:13:30.659Z,55
2016-12-04T08:14:11.198Z,55
2016-12-04T08:14:51.757Z,55
2016-12-04T08:15:32.245Z,55
2016-12-04T08:16:12.776Z,55
2016-12-04T08:16:53.309Z,55
2016-12-04T08:17:33.848Z,60
2016-12-04T08:18:14.383Z,60
2016-12-04T08:18:54.973Z,65
2016-12-04T08:19:35.504Z,65
2016-12-04T08:20:16.008Z,65
2016-12-04T08:20:56.545Z,65
2016-12-04T08:21:37.078Z,65
2016-12-04T08:22:17.619Z,65
2016-12-04T08:22:58.150Z,65
2016-12-04T08:23:38.686Z,65
2016-12-04T08:24:19.192Z,65
2016-12-04T08:24:59.722Z,65
2016-12-04T08:25:40.255Z,65
2016-12-04T08:26:20.782Z,65
2016-12-04T08:27:01.306Z,70
2016-12-04T08:27:41.837Z,70
2016-12-04T08:28:22.406Z,70
2016-12-04T08:29:02.934Z,75
2016-12-04T08:29:43.471Z,70
2016-12-04T08:30:24.004Z,70
2016-12-04T08:31:04.554Z,70
2016-12-04T08:31:45.082Z,70
2016-12-04T08:32:25.609Z,70
2016-12-04T08:33:06.151Z,70
2016-12-04T08:33:46.679Z,75
2016-12-04T08:34:27.214Z,80
2016-12-04T08:35:07.747Z,80
2016-12-04T08:35:48.283Z,80
2016-12-04T08:36:28.817Z,85
2016-12-04T08:37:09.354Z,85
2016-12-04T08:37:49.878Z,85
2016-12-04T08:38:30.418Z,95
2016-12-04T08:39:10.947Z,105
2016-12-04T08:39:51.471Z,115
2016-12-04T08:40:32.007Z,125
2016-12-04T08:41:12.537Z,130
2016-12-04T08:41:53.068Z,135
2016-12-04T08:42:33.599Z,140
2016-12-04T08:43:14.129Z,140
2016-12-04T08:43:54.660Z,140
2016-12-04T08:44:35.196Z,145
2016-12-04T08:45:15.726Z,155
2016-12-04T08:45:56.262Z,165
2016-12-04T08:46:36.803Z,170
2016-12-04T08:47:17.333Z,170
2016-12-04T08:47:57.864Z,170
2016-12-04T08:48:38.401Z,165
2016-12-04T08:49:18.940Z,175
2016-12-04T08:49:59.473Z,190
2016-12-04T08:50:40.006Z,200
2016-12-04T08:51:20.543Z,200
2016-12-04T08:52:01.075Z,205
2016-12-04T08:52:41.606Z,210
2016-12-04T08:53:22.134Z,225
2016-12-04T08:54:02.669Z,215
2016-12-04T08:54:43.208Z,185
2016-12-04T08:55:23.740Z,175
2016-12-04T08:56:04.268Z,175
2016-12-04T08:56:44.787Z,175
2016-12-04T08:57:25.325Z,155
2016-12-04T08:58:05.863Z,145
2016-12-04T08:58:46.390Z,145
2016-12-04T08:59:26.927Z,165
2016-12-04T09:00:07.461Z,185
2016-12-04T09:00:47.998Z,190
2016-12-04T09:01:28.535Z,185
2016-12-04T09:02:09.073Z,180
2016-12-04T09:02:49.603Z,190
2016-12-04T09:03:30.133Z,195
2016-12-04T09:04:10.663Z,195
2016-12-04T09:04:51.221Z,170
2016-12-04T09:05:31.761Z,165
2016-12-04T09:06:12.316Z,200
2016-12-04T09:06:52.857Z,280
2016-12-04T09:07:33.377Z,355
2016-12-04T09:08:13.893Z,390
2016-12-04T09:08:54.426Z,405
2016-12-04T09:09:34.966Z,380
2016-12-04T09:10:15.502Z,360
2016-12-04T09:10:56.050Z,335
2016-12-04T09:11:36.561Z,320
2016-12-04T09:12:17.094Z,305
2016-12-04T09:12:57.629Z,325
2016-12-04T09:13:38.162Z,345
2016-12-04T09:14:18.700Z,375
2016-12-04T09:14:59.245Z,395
2016-12-04T09:15:39.786Z,395
2016-12-04T09:16:20.325Z,365
2016-12-04T09:17:00.848Z,380
2016-12-04T09:17:41.391Z,380
2016-12-04T09:18:21.924Z,400
2016-12-04T09:19:02.464Z,420
2016-12-04T09:19:42.997Z,465
2016-12-04T09:20:23.541Z,505
2016-12-04T09:21:04.080Z,500
2016-12-04T09:21:44.613Z,465
2016-12-04T09:22:25.153Z,415
2016-12-04T09:23:05.700Z,395
2016-12-04T09:23:46.239Z,390
2016-12-04T09:24:26.778Z,380
2016-12-04T09:25:07.321Z,355
2016-12-04T09:25:47.862Z,315
2016-12-04T09:26:28.409Z,290
2016-12-04T09:27:08.948Z,285
2016-12-04T09:27:49.483Z,285
2016-12-04T09:28:30.023Z,280
2016-12-04T09:29:10.562Z,280
2016-12-04T09:29:51.101Z,280
2016-12-04T09:30:31.642Z,285
2016-12-04T09:31:12.182Z,290
2016-12-04T09:31:52.727Z,295
2016-12-04T09:32:33.263Z,290
2016-12-04T09:33:13.803Z,295
2016-12-04T09:33:54.340Z,300
2016-12-04T09:34:34.872Z,300
2016-12-04T09:35:15.421Z,300
2016-12-04T09:35:55.956Z,300
2016-12-04T09:36:36.484Z,305
2016-12-04T09:37:17.030Z,310
2016-12-04T09:37:57.575Z,310
2016-12-04T09:38:38.094Z,315
2016-12-04T09:39:18.626Z,315
2016-12-04T09:39:59.161Z,325
2016-12-04T09:40:39.705Z,340
2016-12-04T09:41:20.257Z,340
2016-12-04T09:42:00.781Z,350
2016-12-04T09:42:41.318Z,365
2016-12-04T09:43:21.862Z,395
2016-12-04T09:44:02.411Z,435
2016-12-04T09:44:42.948Z,475
2016-12-04T09:45:23.480Z,545
2016-12-04T09:46:04.017Z,635
2016-12-04T09:46:44.557Z,680
2016-12-04T09:47:25.097Z,715
2016-12-04T09:48:05.629Z,735
2016-12-04T09:48:46.182Z,755
2016-12-04T09:49:26.724Z,775
2016-12-04T09:50:07.268Z,775
2016-12-04T09:50:47.812Z,790
2016-12-04T09:51:28.355Z,795
2016-12-04T09:52:08.892Z,790
2016-12-04T09:52:49.470Z,795
2016-12-04T09:53:30.009Z,775
2016-12-04T09:54:10.537Z,755
2016-12-04T09:54:51.079Z,770
2016-12-04T09:55:31.621Z,800
2016-12-04T09:56:12.156Z,825
2016-12-04T09:56:52.700Z,815
2016-12-04T09:57:33.249Z,805
2016-12-04T09:58:13.785Z,790
2016-12-04T09:58:54.326Z,790
2016-12-04T09:59:34.869Z,795
2016-12-04T10:00:15.416Z,800
2016-12-04T10:00:55.948Z,805
2016-12-04T10:01:36.482Z,825
2016-12-04T10:02:17.025Z,825
2016-12-04T10:02:57.566Z,825
2016-12-04T10:03:38.110Z,835
2016-12-04T10:04:18.655Z,830
2016-12-04T10:04:59.208Z,815
2016-12-04T10:05:39.746Z,825
2016-12-04T10:06:20.295Z,840
2016-12-04T10:07:00.845Z,840
2016-12-04T10:07:41.374Z,855
2016-12-04T10:08:21.914Z,855
2016-12-04T10:09:02.454Z,855
2016-12-04T10:09:42.989Z,860
2016-12-04T10:10:23.532Z,875
2016-12-04T10:11:04.080Z,885
2016-12-04T10:11:44.626Z,900
2016-12-04T10:12:25.170Z,900
2016-12-04T10:13:05.723Z,910
2016-12-04T10:13:46.256Z,910
2016-12-04T10:14:26.800Z,900
2016-12-04T10:15:07.341Z,905
2016-12-04T10:15:47.879Z,920
2016-12-04T10:16:28.429Z,940
2016-12-04T10:17:08.970Z,935
2016-12-04T10:17:49.511Z,930
2016-12-04T10:18:30.054Z,925
2016-12-04T10:19:10.599Z,915
2016-12-04T10:19:51.141Z,905
2016-12-04T10:20:31.685Z,890
2016-12-04T10:21:12.222Z,865
2016-12-04T10:21:52.773Z,815
2016-12-04T10:22:33.321Z,805